Terminal Aerodrome Forecast
Issued by NWS Twin Cities, MN

Home | Current Version | Previous Version | Text Only | Print | Product List | Glossary On
Versions: 1 2 3 4 5 6 7 8 9 10 11 12 13 14 15 16 17 18
000
FTUS43 KMPX 230520
TAFSTC
TAF
KSTC 230520Z 2306/2406 09006KT P6SM BKN250
     FM231200 12008KT P6SM VCSH SCT040 BKN110
      TEMPO 2316/2320 3SM TSRA BKN035CB
     FM232200 15010KT 6SM -SHRA BKN050
      TEMPO 2323/2403 3SM TSRA BKN035CB
     FM240300 20007KT P6SM VCSH SCT040 BKN060=

USA.gov is the U.S. government's official web portal to all federal, state and local government web resources and services.